Time;durP1;ratioP1;P1;durP2;ratioP2;P2;SDS_P1;SDS_P2;PMS_P1;PMS_P2;Temp;Humidity;BMP_temperature;BMP_pressure;BME280_temperature;BME280_humidity;BME280_pressure;Samples;Min_cycle;Max_cycle;Signal;HPM_P1;HPM_P2
2023/07/15 00:00:16;;;;;;;6.07;2.78;;;19.70;99.90;;;;;;5022863;28;20052;-72
2023/07/15 00:02:43;;;;;;;7.40;3.20;;;19.70;99.90;;;;;;5025226;28;20041;-72
2023/07/15 00:05:17;;;;;;;7.50;3.28;;;19.80;99.90;;;;;;5026655;28;20037;-72
2023/07/15 00:07:43;;;;;;;7.68;2.97;;;19.80;99.90;;;;;;5024634;28;20049;-72
2023/07/15 00:10:10;;;;;;;7.75;2.83;;;19.80;99.90;;;;;;5020688;28;20041;-72
2023/07/15 00:12:35;;;;;;;5.28;2.92;;;19.80;99.90;;;;;;5023744;28;20045;-72
2023/07/15 00:15:01;;;;;;;4.70;2.90;;;19.70;99.90;;;;;;5024403;28;20048;-72
2023/07/15 00:17:27;;;;;;;4.88;2.72;;;19.70;99.90;;;;;;5025701;28;20041;-74
2023/07/15 00:19:53;;;;;;;5.30;2.92;;;19.60;99.90;;;;;;5026075;28;20711;-72
2023/07/15 00:22:18;;;;;;;4.93;2.58;;;19.90;99.90;;;;;;5022118;28;20042;-72
2023/07/15 00:24:45;;;;;;;5.53;3.00;;;19.80;99.90;;;;;;5025671;28;20042;-72
2023/07/15 00:27:11;;;;;;;5.25;3.13;;;19.90;99.90;;;;;;5024132;28;20499;-73
2023/07/15 00:29:37;;;;;;;7.82;2.88;;;19.70;99.90;;;;;;5025880;28;20037;-72
2023/07/15 00:32:04;;;;;;;3.67;2.60;;;20.10;99.90;;;;;;5026224;28;20041;-73
2023/07/15 00:34:30;;;;;;;5.47;2.70;;;20.00;99.90;;;;;;5024054;28;20068;-73
2023/07/15 00:36:56;;;;;;;6.88;3.47;;;20.40;99.90;;;;;;5023193;28;20057;-72
2023/07/15 00:39:21;;;;;;;6.07;2.80;;;20.20;99.90;;;;;;5024203;28;20037;-72
2023/07/15 00:41:47;;;;;;;5.15;2.60;;;20.50;99.90;;;;;;5026056;28;20048;-72
2023/07/15 00:44:15;;;;;;;3.70;2.30;;;20.50;99.90;;;;;;5025947;28;20033;-73
2023/07/15 00:46:57;;;;;;;5.28;2.72;;;20.40;99.90;;;;;;5023788;28;20130;-72
2023/07/15 00:49:27;;;;;;;5.75;2.70;;;20.50;99.90;;;;;;5022254;28;20051;-72
2023/07/15 00:52:09;;;;;;;4.10;2.45;;;20.50;99.90;;;;;;5023796;28;20103;-73
2023/07/15 00:54:37;;;;;;;5.53;2.38;;;20.60;99.90;;;;;;5025512;28;20116;-72
2023/07/15 00:57:04;;;;;;;4.32;2.33;;;21.30;99.90;;;;;;5023868;28;20088;-73
2023/07/15 00:59:30;;;;;;;4.40;2.10;;;20.70;99.90;;;;;;5021171;28;20542;-72
2023/07/15 01:01:57;;;;;;;4.57;2.33;;;20.70;99.90;;;;;;5023559;28;20072;-72
2023/07/15 01:04:23;;;;;;;5.28;2.03;;;20.80;99.90;;;;;;5025410;28;20045;-72
2023/07/15 01:06:48;;;;;;;3.70;1.90;;;21.00;99.90;;;;;;5024388;28;20045;-73
2023/07/15 01:09:14;;;;;;;7.95;2.28;;;21.20;99.90;;;;;;5024808;28;20762;-72
2023/07/15 01:11:40;;;;;;;4.35;2.10;;;21.00;99.90;;;;;;5025312;28;20124;-72
2023/07/15 01:14:06;;;;;;;3.50;2.03;;;20.80;99.90;;;;;;5023642;28;20042;-72
2023/07/15 01:16:32;;;;;;;7.07;2.17;;;20.80;99.90;;;;;;5025565;28;20046;-74
2023/07/15 01:18:58;;;;;;;3.63;1.77;;;21.10;99.90;;;;;;5024917;28;20509;-73
2023/07/15 01:21:28;;;;;;;4.90;2.15;;;20.80;99.90;;;;;;5024022;28;20030;-72
2023/07/15 01:23:53;;;;;;;5.15;1.92;;;21.10;99.90;;;;;;5023887;28;20160;-72
2023/07/15 01:26:19;;;;;;;4.30;2.15;;;21.00;99.90;;;;;;5023520;28;20136;-72
2023/07/15 01:28:45;;;;;;;4.93;2.17;;;21.20;99.90;;;;;;5023771;28;20496;-72
2023/07/15 01:31:12;;;;;;;3.92;2.00;;;21.00;99.90;;;;;;5023309;28;20053;-72
2023/07/15 01:33:38;;;;;;;5.25;2.10;;;21.10;99.90;;;;;;5025103;28;20064;-73
2023/07/15 01:36:04;;;;;;;4.35;2.08;;;21.40;99.90;;;;;;5020697;28;20049;-72
2023/07/15 01:38:31;;;;;;;4.68;1.98;;;21.10;99.90;;;;;;5022736;28;20045;-72
2023/07/15 01:40:56;;;;;;;7.90;1.90;;;21.00;99.90;;;;;;5021007;28;20056;-73
2023/07/15 01:43:22;;;;;;;7.88;1.90;;;21.30;99.90;;;;;;5023083;28;20037;-73
2023/07/15 01:45:47;;;;;;;4.15;1.75;;;21.00;99.90;;;;;;5023304;28;20042;-74
2023/07/15 01:48:13;;;;;;;5.03;1.83;;;21.20;99.90;;;;;;5023798;28;20060;-72
2023/07/15 01:50:39;;;;;;;5.93;2.05;;;21.40;99.90;;;;;;5024777;28;20068;-72
2023/07/15 01:53:05;;;;;;;3.90;1.75;;;21.20;99.90;;;;;;5024017;28;20689;-71
2023/07/15 01:55:31;;;;;;;5.18;2.17;;;21.10;99.90;;;;;;5023245;28;20060;-72
2023/07/15 01:57:56;;;;;;;3.72;1.60;;;21.10;99.90;;;;;;5024924;28;20080;-71
2023/07/15 02:00:22;;;;;;;6.53;2.17;;;21.30;99.90;;;;;;5024920;28;20399;-73
2023/07/15 02:02:48;;;;;;;5.40;2.20;;;21.00;99.90;;;;;;5023879;28;20076;-73
2023/07/15 02:05:13;;;;;;;5.75;2.15;;;21.00;99.90;;;;;;5022407;28;20038;-73
2023/07/15 02:07:39;;;;;;;6.85;2.10;;;21.00;99.90;;;;;;5024523;28;20044;-72
2023/07/15 02:10:05;;;;;;;5.63;1.98;;;20.90;99.90;;;;;;5023525;28;20052;-73
2023/07/15 02:12:30;;;;;;;4.20;2.05;;;21.00;99.90;;;;;;5023474;28;20049;-72
2023/07/15 02:14:56;;;;;;;4.63;2.00;;;21.00;99.90;;;;;;5023259;28;20403;-72
2023/07/15 02:17:22;;;;;;;5.78;2.03;;;20.90;99.90;;;;;;5023236;28;21299;-72
2023/07/15 02:19:52;;;;;;;4.78;1.48;;;19.20;99.90;;;;;;5041600;28;20137;-72
2023/07/15 02:22:18;;;;;;;5.22;2.00;;;21.10;99.90;;;;;;5025504;28;20048;-73
2023/07/15 02:24:44;;;;;;;5.43;1.65;;;21.00;99.90;;;;;;5020973;28;20048;-71
2023/07/15 02:27:11;;;;;;;6.45;1.80;;;21.00;99.90;;;;;;5027074;28;20045;-74
2023/07/15 02:29:36;;;;;;;5.57;2.00;;;20.80;99.90;;;;;;5022201;28;20041;-72
2023/07/15 02:32:03;;;;;;;4.25;1.60;;;21.00;99.90;;;;;;5026705;28;20159;-72
2023/07/15 02:34:29;;;;;;;5.28;1.80;;;20.60;99.90;;;;;;5027997;28;20058;-72
2023/07/15 02:36:54;;;;;;;3.22;1.65;;;20.90;99.90;;;;;;5022944;28;20545;-72
2023/07/15 02:39:20;;;;;;;5.47;1.83;;;20.60;99.90;;;;;;5028744;28;20466;-72
2023/07/15 02:41:46;;;;;;;8.02;1.83;;;20.80;99.90;;;;;;5026602;28;20053;-73
2023/07/15 02:44:12;;;;;;;4.38;1.70;;;20.70;99.90;;;;;;5026385;28;20060;-72
2023/07/15 02:46:38;;;;;;;4.57;2.08;;;20.70;99.90;;;;;;5027092;28;20426;-74
2023/07/15 02:49:03;;;;;;;4.03;2.05;;;20.70;99.90;;;;;;5026998;28;20567;-72
2023/07/15 02:51:29;;;;;;;6.35;2.03;;;20.90;99.90;;;;;;5027089;28;20038;-72
2023/07/15 02:53:54;;;;;;;6.15;1.80;;;20.80;99.90;;;;;;5028395;28;20813;-72
2023/07/15 02:56:20;;;;;;;9.00;2.30;;;20.70;99.90;;;;;;5028167;28;20389;-74
2023/07/15 02:58:45;;;;;;;4.53;1.67;;;20.60;99.90;;;;;;5027783;28;20051;-72
2023/07/15 03:01:11;;;;;;;5.75;1.80;;;20.50;99.90;;;;;;5026433;28;20037;-71
2023/07/15 03:03:37;;;;;;;4.85;2.10;;;20.50;99.90;;;;;;5026722;28;20060;-71
2023/07/15 03:06:03;;;;;;;4.70;1.95;;;20.50;99.90;;;;;;5027209;28;20057;-71
2023/07/15 03:08:30;;;;;;;4.32;1.50;;;20.90;99.90;;;;;;5024559;28;20041;-71
2023/07/15 03:10:56;;;;;;;7.20;1.80;;;20.60;99.90;;;;;;5025078;28;20072;-71
2023/07/15 03:13:25;;;;;;;7.45;1.90;;;20.70;99.90;;;;;;5026095;28;20097;-72
2023/07/15 03:15:52;;;;;;;6.22;1.85;;;20.70;99.90;;;;;;5028251;28;20075;-71
2023/07/15 03:18:17;;;;;;;7.70;1.73;;;20.50;99.90;;;;;;5025900;28;20045;-71
2023/07/15 03:20:43;;;;;;;4.50;1.48;;;22.20;99.90;;;;;;5023144;28;20041;-71
2023/07/15 03:23:08;;;;;;;6.80;1.80;;;20.50;99.90;;;;;;5027354;28;20029;-73
2023/07/15 03:25:34;;;;;;;5.40;1.90;;;20.70;99.90;;;;;;5027378;28;20045;-73
2023/07/15 03:28:00;;;;;;;5.13;1.60;;;20.50;99.90;;;;;;5025826;28;20056;-72
2023/07/15 03:30:26;;;;;;;4.60;1.48;;;20.70;99.90;;;;;;5027382;28;20042;-72
2023/07/15 03:32:56;;;;;;;7.10;2.10;;;20.70;99.90;;;;;;5024829;28;20746;-72
2023/07/15 03:35:22;;;;;;;8.15;2.28;;;20.80;99.90;;;;;;5023604;28;20107;-72
2023/07/15 03:37:47;;;;;;;6.13;1.90;;;20.50;99.90;;;;;;5026808;28;20785;-72
2023/07/15 03:40:13;;;;;;;3.90;1.42;;;20.40;99.90;;;;;;5025649;28;20797;-71
2023/07/15 03:42:39;;;;;;;4.65;2.25;;;20.70;99.90;;;;;;5022279;28;20072;-72
2023/07/15 03:45:05;;;;;;;4.25;1.75;;;20.60;99.90;;;;;;5025182;28;20797;-72
2023/07/15 03:47:32;;;;;;;16.38;1.73;;;20.50;99.90;;;;;;5025676;28;20053;-72
2023/07/15 03:49:58;;;;;;;3.83;1.67;;;20.40;99.90;;;;;;5021784;28;20071;-71
2023/07/15 03:52:24;;;;;;;6.97;1.92;;;20.30;99.90;;;;;;5025737;28;20409;-72
2023/07/15 03:54:49;;;;;;;5.40;1.73;;;20.30;99.90;;;;;;5026445;28;20518;-72
2023/07/15 03:57:15;;;;;;;5.45;1.70;;;20.20;99.90;;;;;;5024625;28;20037;-72
2023/07/15 03:59:41;;;;;;;9.75;2.00;;;20.20;99.90;;;;;;5027005;28;20774;-72
2023/07/15 04:02:06;;;;;;;5.85;2.00;;;20.30;99.90;;;;;;5026386;28;20077;-72
2023/07/15 04:04:32;;;;;;;4.50;1.80;;;20.30;99.90;;;;;;5025635;28;20049;-72
2023/07/15 04:06:59;;;;;;;5.35;1.60;;;20.30;99.90;;;;;;5025090;28;20413;-72
2023/07/15 04:09:25;;;;;;;6.15;1.88;;;20.30;99.90;;;;;;5025462;28;20146;-72
2023/07/15 04:11:51;;;;;;;5.38;1.83;;;22.50;99.90;;;;;;5024471;28;20136;-72
2023/07/15 04:14:16;;;;;;;4.57;1.60;;;20.50;99.90;;;;;;5024789;28;20055;-72
2023/07/15 04:16:42;;;;;;;4.32;1.75;;;20.20;99.90;;;;;;5024935;28;20398;-72
2023/07/15 04:19:08;;;;;;;7.63;2.20;;;20.40;99.90;;;;;;5024504;28;20120;-72
2023/07/15 04:21:34;;;;;;;3.17;2.10;;;20.10;99.90;;;;;;5025507;28;20034;-72
2023/07/15 04:23:59;;;;;;;7.82;1.70;;;20.00;99.90;;;;;;5018100;28;20045;-72
2023/07/15 04:26:26;;;;;;;3.83;2.08;;;20.10;99.90;;;;;;5024038;28;20045;-71
2023/07/15 04:28:54;;;;;;;3.03;1.80;;;19.90;99.90;;;;;;5020710;28;20511;-72
2023/07/15 04:31:20;;;;;;;4.03;2.00;;;20.20;99.90;;;;;;5023406;28;20487;-72
2023/07/15 04:33:47;;;;;;;3.08;1.52;;;20.10;99.90;;;;;;5022442;28;20058;-72
2023/07/15 04:36:13;;;;;;;4.05;1.70;;;20.10;99.90;;;;;;5025902;28;20046;-72
2023/07/15 04:38:39;;;;;;;6.68;2.45;;;20.00;99.90;;;;;;5022964;28;20104;-72
2023/07/15 04:41:05;;;;;;;5.43;2.00;;;20.20;99.90;;;;;;5023652;28;20641;-72
2023/07/15 04:43:31;;;;;;;2.40;1.60;;;20.20;99.90;;;;;;5021280;28;20080;-72
2023/07/15 04:45:57;;;;;;;7.30;2.45;;;20.00;99.90;;;;;;5025918;28;20053;-72
2023/07/15 04:48:23;;;;;;;8.27;2.00;;;20.00;99.90;;;;;;5024118;28;20499;-72
2023/07/15 04:50:52;;;;;;;4.78;1.63;;;20.00;99.90;;;;;;5020207;28;20049;-72
2023/07/15 04:53:18;;;;;;;2.75;1.60;;;20.00;99.90;;;;;;5023322;28;20049;-72
2023/07/15 04:55:45;;;;;;;3.78;2.10;;;20.30;99.90;;;;;;5024172;28;20045;-72
2023/07/15 04:58:12;;;;;;;3.10;2.05;;;20.10;99.90;;;;;;5021835;28;20077;-72
2023/07/15 05:00:37;;;;;;;5.60;2.15;;;20.20;99.90;;;;;;5022608;28;20107;-72
2023/07/15 05:03:05;;;;;;;4.10;2.03;;;20.20;99.90;;;;;;5024185;28;20041;-71
2023/07/15 05:05:31;;;;;;;5.07;1.92;;;20.10;99.90;;;;;;5020813;28;20487;-72
2023/07/15 05:08:07;;;;;;;4.10;1.95;;;20.60;99.90;;;;;;5024258;28;20049;-72
2023/07/15 05:10:33;;;;;;;6.50;2.13;;;20.90;99.90;;;;;;5023102;28;20045;-72
2023/07/15 05:12:58;;;;;;;9.07;2.17;;;21.50;99.90;;;;;;5025687;28;20067;-72
2023/07/15 05:15:24;;;;;;;6.63;2.35;;;21.70;99.90;;;;;;5025312;28;20041;-71
2023/07/15 05:17:50;;;;;;;4.70;1.50;;;22.00;99.90;;;;;;5025360;28;20041;-72
2023/07/15 05:20:18;;;;;;;7.10;1.95;;;21.90;99.90;;;;;;5023985;28;20136;-72
2023/07/15 05:22:44;;;;;;;6.10;1.75;;;22.40;99.90;;;;;;5019828;28;20037;-72
2023/07/15 05:25:10;;;;;;;7.45;1.77;;;22.10;99.90;;;;;;5023973;28;20034;-72
2023/07/15 05:27:35;;;;;;;6.45;2.10;;;21.90;99.90;;;;;;5025238;28;20678;-72
2023/07/15 05:30:01;;;;;;;7.55;1.90;;;22.00;99.90;;;;;;5023765;28;20052;-71
2023/07/15 05:32:27;;;;;;;5.63;1.75;;;22.20;99.90;;;;;;5025212;28;20041;-72
2023/07/15 05:34:52;;;;;;;3.65;1.50;;;22.20;99.90;;;;;;5023553;28;20131;-72
2023/07/15 05:37:18;;;;;;;5.78;1.67;;;22.60;99.90;;;;;;5024029;28;20429;-72
2023/07/15 05:39:47;;;;;;;9.40;3.10;;;22.80;99.90;;;;;;5022940;28;20053;-72
2023/07/15 05:42:12;;;;;;;9.57;1.80;;;23.30;99.90;;;;;;5021046;28;20040;-73
2023/07/15 05:44:38;;;;;;;10.07;1.92;;;23.50;99.90;;;;;;5020860;28;20561;-72
2023/07/15 05:47:04;;;;;;;3.88;1.45;;;23.90;99.90;;;;;;5023070;28;20037;-72
2023/07/15 05:49:29;;;;;;;3.47;2.17;;;24.30;99.90;;;;;;5020534;28;20073;-72
2023/07/15 05:51:55;;;;;;;8.32;1.52;;;24.50;99.90;;;;;;5002981;28;20578;-73
2023/07/15 05:54:20;;;;;;;4.88;1.95;;;24.40;99.90;;;;;;5022569;28;20219;-72
2023/07/15 05:56:46;;;;;;;3.88;1.65;;;24.80;99.90;;;;;;5025682;28;20045;-73
2023/07/15 05:59:11;;;;;;;5.47;1.65;;;25.10;99.90;;;;;;5027463;28;20052;-73
2023/07/15 06:01:37;;;;;;;6.35;1.60;;;24.90;99.90;;;;;;5027242;28;20037;-73
2023/07/15 06:04:05;;;;;;;4.45;1.83;;;24.30;99.90;;;;;;5025179;28;20088;-73
2023/07/15 06:06:31;;;;;;;5.38;1.92;;;24.00;99.90;;;;;;5028544;28;20091;-73
2023/07/15 06:08:57;;;;;;;5.68;1.75;;;24.90;99.90;;;;;;5026404;28;20459;-74
2023/07/15 06:11:22;;;;;;;4.90;1.73;;;23.30;99.90;;;;;;5026222;28;20041;-73
2023/07/15 06:13:48;;;;;;;4.22;1.30;;;23.70;99.90;;;;;;5022407;28;20041;-73
2023/07/15 06:16:13;;;;;;;2.58;1.23;;;23.90;99.90;;;;;;5023172;28;20048;-73
2023/07/15 06:18:39;;;;;;;4.80;1.23;;;24.40;99.90;;;;;;5024857;28;20099;-73
2023/07/15 06:21:09;;;;;;;5.68;1.70;;;24.20;99.90;;;;;;5024581;28;20128;-72
2023/07/15 06:23:35;;;;;;;3.70;1.33;;;24.10;99.90;;;;;;5027089;28;20475;-72
2023/07/15 06:26:51;;;;;;;3.70;1.48;;;24.10;99.90;;;;;;5044235;28;20048;-71
2023/07/15 06:29:16;;;;;;;3.75;1.75;;;23.90;99.90;;;;;;5024901;28;20053;-71
2023/07/15 06:31:42;;;;;;;7.57;2.92;;;23.50;99.90;;;;;;5027902;28;20041;-71
2023/07/15 06:34:07;;;;;;;5.43;1.60;;;23.40;99.90;;;;;;5026237;28;20084;-72
2023/07/15 06:36:33;;;;;;;4.43;1.65;;;24.00;99.90;;;;;;5023061;28;20511;-72
2023/07/15 06:38:58;;;;;;;5.22;1.65;;;23.70;99.90;;;;;;5025149;28;20427;-71
2023/07/15 06:41:24;;;;;;;5.30;2.22;;;23.60;99.90;;;;;;5028024;28;20168;-71
2023/07/15 06:43:49;;;;;;;5.40;1.83;;;23.80;99.90;;;;;;5024228;28;20124;-71
2023/07/15 06:46:15;;;;;;;6.32;2.08;;;23.50;99.90;;;;;;5015693;28;20046;-71
2023/07/15 06:48:43;;;;;;;4.40;1.90;;;23.20;99.90;;;;;;5025423;28;20052;-72
2023/07/15 06:51:10;;;;;;;4.28;2.03;;;23.20;99.90;;;;;;5025953;28;20498;-72
2023/07/15 06:53:35;;;;;;;6.20;1.90;;;24.40;99.90;;;;;;5025945;28;20173;-71
2023/07/15 06:56:01;;;;;;;7.60;1.85;;;23.40;99.90;;;;;;5026171;28;20037;-71
2023/07/15 06:58:26;;;;;;;4.18;1.60;;;23.30;99.90;;;;;;5027274;28;20124;-71
2023/07/15 07:00:52;;;;;;;10.75;1.98;;;23.20;99.90;;;;;;5026044;28;20817;-71
2023/07/15 07:03:18;;;;;;;5.53;1.67;;;23.20;99.90;;;;;;5025221;28;20040;-72
2023/07/15 07:05:43;;;;;;;4.65;2.05;;;23.30;99.90;;;;;;5027269;28;20049;-71
2023/07/15 07:08:09;;;;;;;5.05;1.92;;;23.00;99.90;;;;;;5023208;28;20045;-71
2023/07/15 07:10:35;;;;;;;4.18;1.83;;;23.20;99.90;;;;;;5023149;28;20064;-71
2023/07/15 07:13:01;;;;;;;10.07;2.05;;;23.40;99.90;;;;;;5027014;28;20053;-71
2023/07/15 07:15:28;;;;;;;5.32;2.00;;;23.30;99.90;;;;;;5024518;28;20068;-71
2023/07/15 07:17:54;;;;;;;8.38;1.77;;;23.60;99.90;;;;;;5025924;28;20052;-71
2023/07/15 07:20:19;;;;;;;5.70;1.85;;;23.30;99.90;;;;;;5026846;28;20069;-72
2023/07/15 07:22:45;;;;;;;5.30;1.85;;;23.60;99.90;;;;;;5027398;28;20069;-72
2023/07/15 07:25:10;;;;;;;4.35;1.60;;;23.30;99.90;;;;;;5025415;28;20041;-72
2023/07/15 07:27:36;;;;;;;5.30;1.38;;;24.20;99.90;;;;;;5027034;28;20048;-71
2023/07/15 07:30:02;;;;;;;6.22;2.00;;;23.20;99.90;;;;;;5027269;28;20041;-71
2023/07/15 07:32:27;;;;;;;3.20;1.27;;;23.10;99.90;;;;;;5025900;28;20102;-71
2023/07/15 07:34:53;;;;;;;7.00;1.35;;;23.10;99.90;;;;;;5026493;28;20057;-71
2023/07/15 07:37:19;;;;;;;2.40;1.00;;;22.10;99.90;;;;;;5025769;28;20045;-71
2023/07/15 07:39:44;;;;;;;3.17;1.30;;;22.70;99.90;;;;;;5025450;28;20116;-71
2023/07/15 07:42:10;;;;;;;6.68;1.25;;;22.70;99.90;;;;;;5027360;28;20115;-71
2023/07/15 07:44:35;;;;;;;2.35;0.85;;;22.80;99.90;;;;;;5024726;28;20045;-71
2023/07/15 07:47:01;;;;;;;3.33;0.90;;;22.70;99.90;;;;;;5025541;28;20474;-71
2023/07/15 07:49:26;;;;;;;4.78;0.88;;;23.70;99.90;;;;;;5024206;28;20451;-72
2023/07/15 07:51:52;;;;;;;5.20;1.30;;;22.80;99.90;;;;;;5025506;28;20030;-72
2023/07/15 07:54:17;;;;;;;2.20;0.90;;;23.30;99.90;;;;;;5026952;28;20107;-71
2023/07/15 07:56:43;;;;;;;3.00;1.00;;;23.30;99.90;;;;;;5025320;28;20143;-72
2023/07/15 07:59:09;;;;;;;4.00;0.93;;;23.50;99.90;;;;;;5024463;28;20044;-71
2023/07/15 08:01:34;;;;;;;2.22;0.63;;;23.40;99.90;;;;;;5024372;28;20132;-71
2023/07/15 08:04:00;;;;;;;1.80;0.73;;;23.30;99.90;;;;;;5027124;28;20550;-71
2023/07/15 08:06:26;;;;;;;4.25;1.00;;;23.50;99.90;;;;;;5026846;28;20060;-72
2023/07/15 08:08:52;;;;;;;2.25;0.80;;;23.30;99.90;;;;;;5027139;28;20044;-72
2023/07/15 08:11:18;;;;;;;1.85;0.98;;;23.50;99.90;;;;;;5025617;28;20041;-72
2023/07/15 08:13:43;;;;;;;2.20;0.95;;;24.30;99.90;;;;;;5023404;28;20867;-71
2023/07/15 08:16:35;;;;;;;1.05;0.45;;;23.40;99.90;;;;;;5026723;28;20489;-72
2023/07/15 08:19:01;;;;;;;1.88;0.70;;;23.60;99.90;;;;;;5026605;28;20033;-72
2023/07/15 08:21:27;;;;;;;2.40;0.80;;;25.00;99.90;;;;;;5025105;28;20037;-71
2023/07/15 08:23:54;;;;;;;2.83;1.58;;;23.70;99.90;;;;;;5026632;28;20504;-71
2023/07/15 08:26:20;;;;;;;1.35;0.57;;;23.80;99.90;;;;;;5026564;28;20793;-71
2023/07/15 08:28:46;;;;;;;2.60;0.60;;;23.70;99.90;;;;;;5022308;28;20126;-72
2023/07/15 08:31:11;;;;;;;1.80;0.75;;;23.90;99.90;;;;;;5022632;28;20606;-72
2023/07/15 08:33:37;;;;;;;2.80;0.60;;;23.90;99.90;;;;;;5026758;28;20061;-72
2023/07/15 08:36:03;;;;;;;1.80;0.70;;;23.60;99.90;;;;;;5024561;28;20068;-71
2023/07/15 08:38:29;;;;;;;2.15;0.73;;;23.90;99.90;;;;;;5024670;28;20041;-72
2023/07/15 08:40:59;;;;;;;1.48;0.60;;;23.60;99.90;;;;;;5024757;28;20048;-72
2023/07/15 08:43:25;;;;;;;5.85;1.00;;;23.70;99.90;;;;;;5025179;28;20049;-71
2023/07/15 08:45:55;;;;;;;4.05;0.80;;;23.40;99.90;;;;;;5026218;28;20045;-72
2023/07/15 08:48:20;;;;;;;3.40;0.82;;;23.50;99.90;;;;;;5024807;28;21513;-71
2023/07/15 08:50:46;;;;;;;2.25;0.85;;;24.80;99.90;;;;;;5025675;28;20045;-71
2023/07/15 08:53:14;;;;;;;2.25;0.70;;;23.60;99.90;;;;;;5023829;28;20495;-71
2023/07/15 08:55:41;;;;;;;2.92;0.65;;;23.80;99.90;;;;;;5024580;28;20057;-71
2023/07/15 08:58:07;;;;;;;4.22;1.38;;;24.10;99.90;;;;;;5024159;28;20045;-72
2023/07/15 09:00:34;;;;;;;3.60;1.17;;;24.20;99.90;;;;;;5024221;28;20438;-72
2023/07/15 09:03:00;;;;;;;2.63;1.70;;;24.30;99.90;;;;;;5025748;28;20045;-72
2023/07/15 09:05:26;;;;;;;2.95;1.30;;;24.40;99.90;;;;;;5024864;28;20049;-72
2023/07/15 09:07:57;;;;;;;3.95;1.38;;;24.20;99.90;;;;;;5025030;28;20423;-72
2023/07/15 09:10:24;;;;;;;1.40;0.95;;;24.20;99.90;;;;;;5024221;28;20499;-72
2023/07/15 09:12:54;;;;;;;7.35;2.00;;;24.20;99.90;;;;;;5025383;28;20045;-72
2023/07/15 09:15:21;;;;;;;3.60;1.40;;;24.20;99.90;;;;;;5017578;28;20142;-71
2023/07/15 09:17:54;;;;;;;3.25;1.30;;;24.10;99.90;;;;;;5020777;28;20511;-71
2023/07/15 09:20:21;;;;;;;4.07;1.83;;;24.60;99.90;;;;;;5018218;28;20041;-72
2023/07/15 09:22:54;;;;;;;4.75;1.90;;;24.20;99.90;;;;;;5023066;28;20053;-72
2023/07/15 09:25:22;;;;;;;2.55;1.65;;;24.40;99.90;;;;;;5023799;28;20038;-72
2023/07/15 09:27:48;;;;;;;4.13;1.75;;;25.60;99.90;;;;;;5025760;28;20107;-72
2023/07/15 09:30:14;;;;;;;3.33;1.50;;;24.40;99.90;;;;;;5024731;28;20033;-72
2023/07/15 09:32:40;;;;;;;5.40;2.10;;;24.50;99.90;;;;;;5024146;28;20064;-72
2023/07/15 09:35:06;;;;;;;4.43;1.83;;;24.70;99.90;;;;;;5023464;28;20582;-72
2023/07/15 09:37:32;;;;;;;3.58;1.95;;;25.00;99.90;;;;;;5025022;28;20735;-72
2023/07/15 09:40:04;;;;;;;4.15;1.75;;;24.90;99.90;;;;;;5025234;28;20072;-72
2023/07/15 09:42:30;;;;;;;2.65;1.40;;;24.80;99.90;;;;;;5024120;28;20037;-72
2023/07/15 09:44:55;;;;;;;2.70;1.30;;;25.20;99.90;;;;;;5022674;28;20054;-72
2023/07/15 09:47:21;;;;;;;4.05;1.50;;;24.70;99.90;;;;;;5023991;28;20069;-72
2023/07/15 09:49:47;;;;;;;5.72;1.60;;;24.90;99.90;;;;;;5021882;28;20402;-72
2023/07/15 09:52:14;;;;;;;2.80;1.20;;;24.40;99.90;;;;;;5022776;28;20037;-72
2023/07/15 09:54:42;;;;;;;4.57;1.55;;;24.90;99.90;;;;;;5025693;28;20041;-72
2023/07/15 09:57:11;;;;;;;4.90;1.65;;;26.60;99.90;;;;;;5025642;28;20044;-72
2023/07/15 09:59:48;;;;;;;3.83;1.55;;;25.20;99.90;;;;;;5020045;28;20037;-72
2023/07/15 10:02:35;;;;;;;3.78;1.58;;;25.50;99.90;;;;;;5024291;28;20117;-72
2023/07/15 10:05:05;;;;;;;2.97;1.90;;;25.10;99.90;;;;;;5024198;28;20475;-72
2023/07/15 10:07:30;;;;;;;4.85;2.17;;;25.40;99.90;;;;;;5024398;28;20507;-72
2023/07/15 10:09:59;;;;;;;3.97;1.92;;;25.40;99.90;;;;;;5021067;28;20040;-72
2023/07/15 10:12:27;;;;;;;4.82;1.55;;;25.30;99.90;;;;;;5022794;28;20498;-72
2023/07/15 10:14:52;;;;;;;4.00;1.88;;;25.10;99.90;;;;;;5020334;28;20532;-72
2023/07/15 10:17:18;;;;;;;5.40;2.00;;;25.00;99.90;;;;;;5025142;28;20049;-72
2023/07/15 10:19:52;;;;;;;3.33;2.30;;;25.10;99.90;;;;;;5019459;28;20038;-72
2023/07/15 10:22:20;;;;;;;4.30;2.00;;;24.90;99.90;;;;;;5020801;28;20045;-72
2023/07/15 10:24:56;;;;;;;4.28;2.00;;;25.30;99.90;;;;;;5024542;28;20403;-72
2023/07/15 10:27:29;;;;;;;2.75;1.40;;;25.30;99.90;;;;;;5024881;28;20511;-72
2023/07/15 10:30:25;;;;;;;5.03;2.08;;;25.20;99.90;;;;;;5022773;28;20042;-72
2023/07/15 10:33:07;;;;;;;10.23;1.80;;;25.10;99.90;;;;;;5022460;28;20081;-72
2023/07/15 10:35:44;;;;;;;4.40;1.90;;;25.30;99.90;;;;;;5023287;28;20446;-71
2023/07/15 10:38:20;;;;;;;5.35;2.05;;;25.20;99.90;;;;;;5020552;28;20045;-72
2023/07/15 10:40:59;;;;;;;4.97;1.95;;;25.30;99.90;;;;;;5024349;28;20049;-72
2023/07/15 10:43:34;;;;;;;3.90;1.67;;;25.40;99.90;;;;;;5027414;28;20530;-72
2023/07/15 10:46:01;;;;;;;;;;;25.20;99.90;;;;;;5028671;28;20056;-72
2023/07/15 10:48:27;;;;;;;4.25;1.17;;;25.60;99.90;;;;;;5026865;28;20019;-72
2023/07/15 10:50:53;;;;;;;4.82;1.45;;;26.20;99.90;;;;;;5043157;28;20060;-72
2023/07/15 10:53:25;;;;;;;3.08;1.38;;;25.30;99.90;;;;;;5026537;28;20078;-72
2023/07/15 10:55:57;;;;;;;3.38;1.38;;;25.60;99.90;;;;;;5040275;28;20048;-72
2023/07/15 10:58:23;;;;;;;2.90;1.63;;;25.40;99.90;;;;;;5026453;28;20138;-72
2023/07/15 11:00:49;;;;;;;2.78;1.40;;;25.70;99.90;;;;;;5023263;28;20083;-72
2023/07/15 11:03:16;;;;;;;3.97;1.52;;;25.40;99.90;;;;;;5025953;28;20041;-72
2023/07/15 11:05:45;;;;;;;4.70;1.40;;;25.50;99.90;;;;;;5026420;28;20487;-72
2023/07/15 11:08:10;;;;;;;2.53;1.45;;;25.50;99.90;;;;;;5027701;28;20095;-72
2023/07/15 11:10:36;;;;;;;5.45;1.67;;;25.70;99.90;;;;;;5027466;28;20103;-72
2023/07/15 11:13:15;;;;;;;5.18;1.63;;;25.50;99.90;;;;;;5025693;28;20048;-72
2023/07/15 11:15:43;;;;;;;3.10;1.58;;;25.40;99.90;;;;;;5027529;28;20083;-72
2023/07/15 11:18:16;;;;;;;6.95;2.33;;;25.40;99.90;;;;;;5026315;28;20073;-72
2023/07/15 11:20:46;;;;;;;2.77;1.30;;;25.90;99.90;;;;;;5027117;28;20045;-72
2023/07/15 11:23:12;;;;;;;5.25;1.50;;;25.80;99.90;;;;;;5027621;28;20108;-72
2023/07/15 11:25:37;;;;;;;5.40;1.15;;;27.30;99.90;;;;;;5027372;28;20083;-72
2023/07/15 11:28:04;;;;;;;5.30;0.90;;;26.00;99.90;;;;;;5025843;28;20049;-72
2023/07/15 11:30:34;;;;;;;4.65;1.23;;;26.00;99.90;;;;;;5026564;28;20049;-72
2023/07/15 11:33:00;;;;;;;4.43;1.10;;;27.00;99.90;;;;;;5039539;28;20041;-72
2023/07/15 11:35:30;;;;;;;4.40;1.15;;;26.00;99.90;;;;;;5023351;28;20054;-72
2023/07/15 11:37:56;;;;;;;4.70;1.58;;;25.70;99.90;;;;;;5025760;28;20120;-72
2023/07/15 11:40:22;;;;;;;2.58;0.73;;;25.60;99.90;;;;;;5006176;28;20575;-72
2023/07/15 11:42:48;;;;;;;1.98;0.77;;;26.90;99.90;;;;;;5024988;28;20132;-72
2023/07/15 11:45:14;;;;;;;1.85;0.90;;;27.20;99.90;;;;;;5026758;28;20087;-72
2023/07/15 11:47:41;;;;;;;3.20;1.13;;;25.70;99.90;;;;;;5026699;28;20053;-72
2023/07/15 11:50:12;;;;;;;2.00;0.90;;;25.30;99.90;;;;;;5022535;28;20045;-72
2023/07/15 11:52:44;;;;;;;1.70;0.90;;;27.10;99.90;;;;;;5026068;28;20480;-72
2023/07/15 11:55:09;;;;;;;4.25;0.98;;;25.50;99.90;;;;;;5024650;28;20041;-72
2023/07/15 11:57:47;;;;;;;4.00;1.10;;;25.50;99.90;;;;;;5027022;28;20480;-72
2023/07/15 12:00:34;;;;;;;5.22;1.10;;;26.60;99.90;;;;;;5025073;28;20041;-72
2023/07/15 12:03:07;;;;;;;2.55;0.80;;;25.60;99.90;;;;;;5018724;28;20042;-71
2023/07/15 12:05:38;;;;;;;3.13;0.93;;;26.50;99.90;;;;;;5025835;28;20448;-72
2023/07/15 12:08:13;;;;;;;2.50;0.82;;;25.50;99.90;;;;;;5026336;28;20094;-72
2023/07/15 12:10:52;;;;;;;5.80;0.80;;;25.90;99.90;;;;;;5026316;28;20056;-72
2023/07/15 12:13:18;;;;;;;5.15;1.05;;;27.40;99.90;;;;;;5024918;28;20382;-72
2023/07/15 12:15:43;;;;;;;3.40;1.10;;;26.50;99.90;;;;;;5026221;28;20041;-72
2023/07/15 12:18:09;;;;;;;3.45;0.57;;;27.60;99.90;;;;;;5023649;28;20476;-72
2023/07/15 12:20:34;;;;;;;5.07;0.80;;;26.50;99.90;;;;;;5023668;28;20068;-72
2023/07/15 12:23:00;;;;;;;2.15;0.55;;;26.50;99.90;;;;;;5023675;28;20098;-72
2023/07/15 12:25:25;;;;;;;1.90;0.90;;;26.30;99.90;;;;;;5025883;28;20049;-72
2023/07/15 12:27:51;;;;;;;2.50;0.63;;;27.20;99.90;;;;;;5025640;28;20048;-72
2023/07/15 12:30:17;;;;;;;5.38;0.85;;;26.50;99.90;;;;;;5022562;28;20068;-72
2023/07/15 12:32:42;;;;;;;8.32;0.93;;;26.20;99.90;;;;;;5025505;28;20033;-72
2023/07/15 12:35:08;;;;;;;2.97;0.90;;;26.40;99.90;;;;;;5024563;28;20464;-72
2023/07/15 12:37:35;;;;;;;2.55;0.70;;;26.40;99.90;;;;;;5023774;28;20555;-72
2023/07/15 12:40:03;;;;;;;2.05;0.65;;;28.00;99.90;;;;;;5021908;28;20041;-72
2023/07/15 12:42:29;;;;;;;2.63;0.80;;;27.50;99.90;;;;;;5024792;28;20037;-72
2023/07/15 12:44:55;;;;;;;3.55;1.02;;;26.50;99.90;;;;;;5024418;28;20053;-72
2023/07/15 12:47:21;;;;;;;2.53;1.00;;;26.20;99.90;;;;;;5025820;28;20043;-72